createdAt,value
2023-01-30T00:00:11.821Z,19.78
2023-01-30T00:01:11.798Z,19.81
2023-01-30T00:02:11.846Z,19.79
2023-01-30T00:03:11.787Z,19.82
2023-01-30T00:54:52.520Z,19.59
2023-01-30T00:55:53.447Z,19.64
2023-01-30T00:56:53.433Z,19.64
2023-01-30T00:57:53.429Z,19.62
2023-01-30T00:58:53.414Z,19.55
2023-01-30T00:59:53.444Z,19.61
2023-01-30T01:00:53.392Z,19.58
2023-01-30T01:01:53.448Z,19.55
2023-01-30T01:02:53.465Z,19.61
2023-01-30T01:03:53.365Z,19.55
2023-01-30T01:04:53.429Z,19.59
2023-01-30T01:05:53.349Z,19.63
2023-01-30T01:06:53.373Z,19.56
2023-01-30T01:07:53.345Z,19.59
2023-01-30T01:08:53.340Z,19.59
2023-01-30T01:09:53.361Z,19.55
2023-01-30T01:10:53.361Z,19.56
2023-01-30T01:11:53.296Z,19.55
2023-01-30T01:12:53.296Z,19.55
2023-01-30T01:13:53.300Z,19.56
2023-01-30T01:14:53.276Z,19.56
2023-01-30T01:15:53.275Z,19.59
2023-01-30T01:16:53.267Z,19.62
2023-01-30T01:17:53.260Z,19.61
2023-01-30T01:18:53.243Z,19.64
2023-01-30T01:19:53.230Z,19.58
2023-01-30T01:20:53.228Z,19.62
2023-01-30T01:21:53.213Z,19.58
2023-01-30T01:22:53.199Z,19.61
2023-01-30T01:23:53.201Z,19.56
2023-01-30T01:24:53.192Z,19.58
2023-01-30T01:25:53.213Z,19.63
2023-01-30T01:26:53.165Z,19.61
2023-01-30T01:27:53.156Z,19.59
2023-01-30T01:28:53.152Z,19.61
2023-01-30T01:29:53.152Z,19.64
2023-01-30T01:30:53.210Z,19.59
2023-01-30T01:31:53.181Z,19.59
2023-01-30T01:32:53.134Z,19.63
2023-01-30T01:33:53.110Z,19.64
2023-01-30T01:34:53.094Z,19.61
2023-01-30T01:35:53.162Z,19.62
2023-01-30T01:36:54.279Z,19.62
2023-01-30T01:37:53.120Z,19.59
2023-01-30T01:38:53.113Z,19.64
2023-01-30T01:39:53.104Z,19.58
2023-01-30T01:40:53.158Z,19.56
2023-01-30T01:41:53.087Z,19.56
2023-01-30T01:42:53.071Z,19.61
2023-01-30T01:43:53.066Z,19.64
2023-01-30T01:44:53.062Z,19.59
2023-01-30T01:45:53.091Z,19.63
2023-01-30T01:46:53.099Z,19.53
2023-01-30T01:47:53.027Z,19.62
2023-01-30T01:48:53.023Z,19.55
2023-01-30T01:49:53.017Z,19.63
2023-01-30T01:50:53.008Z,19.63
2023-01-30T01:51:53.013Z,19.63
2023-01-30T01:52:52.990Z,19.62
2023-01-30T01:53:52.983Z,19.64
2023-01-30T01:54:52.979Z,19.56
2023-01-30T01:55:52.961Z,19.67
2023-01-30T01:56:52.949Z,19.64
2023-01-30T01:57:52.944Z,19.66
2023-01-30T01:58:52.938Z,19.64
2023-01-30T01:59:52.930Z,19.62
2023-01-30T02:00:52.992Z,19.64
2023-01-30T02:01:52.908Z,19.61
2023-01-30T02:02:52.903Z,19.63
2023-01-30T02:03:52.887Z,19.59
2023-01-30T02:04:52.880Z,19.64
2023-01-30T02:05:52.872Z,19.55
2023-01-30T02:06:52.865Z,19.59
2023-01-30T02:07:52.853Z,19.59
2023-01-30T02:08:52.852Z,19.63
2023-01-30T02:09:52.835Z,19.58
2023-01-30T02:10:52.828Z,19.56
2023-01-30T02:11:52.820Z,19.53
2023-01-30T02:12:52.845Z,19.56
2023-01-30T02:13:52.809Z,19.59
2023-01-30T02:14:52.793Z,19.59
2023-01-30T02:15:52.794Z,19.64
2023-01-30T02:16:52.772Z,19.59
2023-01-30T02:17:52.786Z,19.58
2023-01-30T02:18:52.780Z,19.59
2023-01-30T02:19:52.748Z,19.58
2023-01-30T02:20:52.746Z,19.62
2023-01-30T02:21:52.731Z,19.59
2023-01-30T02:22:52.723Z,19.56
2023-01-30T02:23:52.717Z,19.62
2023-01-30T02:24:52.717Z,19.59
2023-01-30T02:25:54.096Z,19.64
2023-01-30T02:26:52.683Z,19.59
2023-01-30T02:27:52.675Z,19.61
2023-01-30T02:28:52.669Z,19.59
2023-01-30T02:29:52.663Z,19.61
2023-01-30T02:30:52.750Z,19.58
2023-01-30T02:31:52.650Z,19.59
2023-01-30T02:32:52.635Z,19.52
2023-01-30T02:33:52.629Z,19.58
2023-01-30T02:34:52.616Z,19.53
2023-01-30T02:35:52.607Z,19.61
2023-01-30T02:36:52.605Z,19.61
2023-01-30T02:37:52.588Z,19.64
2023-01-30T02:38:52.585Z,19.59
2023-01-30T02:39:52.599Z,19.58
2023-01-30T02:40:52.559Z,19.61
2023-01-30T02:41:52.561Z,19.53
2023-01-30T02:42:52.554Z,19.55
2023-01-30T02:43:52.538Z,19.55
2023-01-30T02:44:52.534Z,19.56
2023-01-30T02:45:52.557Z,19.55
2023-01-30T02:46:52.538Z,19.61
2023-01-30T02:47:52.523Z,19.61
2023-01-30T02:48:52.492Z,19.61
2023-01-30T02:49:52.479Z,19.55
2023-01-30T02:50:52.476Z,19.58
2023-01-30T02:51:52.812Z,19.56
2023-01-30T02:52:52.458Z,19.55
2023-01-30T02:53:52.445Z,19.53
2023-01-30T02:54:52.449Z,19.53
2023-01-30T02:55:52.424Z,19.55
2023-01-30T02:56:52.514Z,19.55
2023-01-30T02:57:52.407Z,19.56
2023-01-30T02:58:52.403Z,19.52
2023-01-30T02:59:52.394Z,19.53
2023-01-30T03:00:52.387Z,19.55
2023-01-30T03:01:52.375Z,19.55
2023-01-30T03:02:52.499Z,19.55
2023-01-30T03:03:52.362Z,19.55
2023-01-30T03:04:52.350Z,19.55
2023-01-30T03:05:52.346Z,19.56
2023-01-30T03:06:52.331Z,19.58
2023-01-30T03:07:52.318Z,19.55
2023-01-30T03:08:52.329Z,19.56
2023-01-30T03:09:52.312Z,19.56
2023-01-30T03:10:52.309Z,19.56
2023-01-30T03:11:52.292Z,19.56
2023-01-30T03:12:52.275Z,19.55
2023-01-30T03:13:52.265Z,19.53
2023-01-30T03:14:52.267Z,19.52
2023-01-30T03:15:52.271Z,19.50
2023-01-30T03:16:52.247Z,19.53
2023-01-30T03:17:52.239Z,19.53
2023-01-30T03:18:52.220Z,19.49
2023-01-30T03:19:52.211Z,19.49
2023-01-30T03:20:52.243Z,19.47
2023-01-30T03:21:52.211Z,19.52
2023-01-30T03:22:52.193Z,19.52
2023-01-30T03:23:52.181Z,19.52
2023-01-30T03:24:52.183Z,19.55
2023-01-30T03:25:52.164Z,19.47
2023-01-30T03:26:52.161Z,19.53
2023-01-30T03:27:52.174Z,19.48
2023-01-30T03:28:52.136Z,19.52
2023-01-30T03:29:52.146Z,19.53
2023-01-30T03:30:52.231Z,19.53
2023-01-30T03:31:52.192Z,19.52
2023-01-30T03:32:52.100Z,19.52
2023-01-30T03:33:52.091Z,19.53
2023-01-30T03:34:52.082Z,19.53
2023-01-30T03:35:52.068Z,19.56
2023-01-30T03:36:52.067Z,19.52
2023-01-30T03:37:52.059Z,19.55
2023-01-30T03:38:52.071Z,19.53
2023-01-30T03:39:52.039Z,19.52
2023-01-30T03:40:52.282Z,19.50
2023-01-30T03:41:52.020Z,19.50
2023-01-30T03:42:52.026Z,19.52
2023-01-30T03:43:52.001Z,19.53
2023-01-30T03:44:52.015Z,19.46
2023-01-30T03:45:52.045Z,19.52
2023-01-30T03:46:51.987Z,19.49
2023-01-30T03:47:51.986Z,19.50
2023-01-30T03:48:51.961Z,19.46
2023-01-30T03:49:51.948Z,19.49
2023-01-30T03:50:51.937Z,19.52
2023-01-30T03:51:51.929Z,19.50
2023-01-30T03:52:51.937Z,19.50
2023-01-30T03:53:51.918Z,19.47
2023-01-30T03:54:51.909Z,19.50
2023-01-30T03:55:51.923Z,19.55
2023-01-30T03:56:51.891Z,19.47
2023-01-30T03:57:51.885Z,19.47
2023-01-30T03:58:51.867Z,19.50
2023-01-30T03:59:51.869Z,19.48
2023-01-30T04:00:52.009Z,19.46
2023-01-30T04:01:51.852Z,19.46
2023-01-30T04:02:51.829Z,19.47
2023-01-30T04:03:51.823Z,19.41
2023-01-30T04:04:51.817Z,19.47
2023-01-30T04:05:51.806Z,19.44
2023-01-30T04:06:51.799Z,19.45
2023-01-30T04:07:51.787Z,19.50
2023-01-30T04:08:51.782Z,19.49
2023-01-30T04:09:51.775Z,19.52
2023-01-30T04:10:51.759Z,19.45
2023-01-30T04:11:51.755Z,19.46
2023-01-30T04:12:51.752Z,19.52
2023-01-30T04:13:51.740Z,19.44
2023-01-30T04:14:51.800Z,19.50
2023-01-30T04:15:51.730Z,19.44
2023-01-30T04:16:51.799Z,19.49
2023-01-30T04:17:51.707Z,19.49
2023-01-30T04:18:51.689Z,19.44
2023-01-30T04:19:51.678Z,19.47
2023-01-30T04:20:51.676Z,19.49
2023-01-30T04:21:51.669Z,19.43
2023-01-30T04:22:51.656Z,19.43
2023-01-30T04:23:51.647Z,19.40
2023-01-30T04:24:51.646Z,19.50
2023-01-30T04:25:51.628Z,19.47
2023-01-30T04:26:51.627Z,19.42
2023-01-30T04:27:51.626Z,19.44
2023-01-30T04:28:51.601Z,19.45
2023-01-30T04:29:51.638Z,19.44
2023-01-30T04:30:51.647Z,19.43
2023-01-30T04:31:51.613Z,19.47
2023-01-30T04:32:51.589Z,19.41
2023-01-30T04:33:51.557Z,19.41
2023-01-30T04:34:51.550Z,19.43
2023-01-30T04:35:51.536Z,19.44
2023-01-30T04:36:51.530Z,19.48
2023-01-30T04:37:51.531Z,19.41
2023-01-30T04:38:51.515Z,19.47
2023-01-30T04:39:51.501Z,19.41
2023-01-30T04:40:51.489Z,19.38
2023-01-30T04:41:51.481Z,19.42
2023-01-30T04:42:51.484Z,19.35
2023-01-30T04:43:51.474Z,19.44
2023-01-30T04:44:51.461Z,19.44
2023-01-30T04:45:51.453Z,19.44
2023-01-30T04:46:51.444Z,19.43
2023-01-30T04:47:51.539Z,19.42
2023-01-30T04:48:51.449Z,19.41
2023-01-30T04:49:51.411Z,19.40
2023-01-30T04:50:51.420Z,19.42
2023-01-30T04:51:51.399Z,19.42
2023-01-30T04:52:51.387Z,19.40
2023-01-30T04:53:51.406Z,19.40
2023-01-30T04:54:51.369Z,19.36
2023-01-30T04:55:51.366Z,19.42
2023-01-30T04:56:51.352Z,19.44
2023-01-30T04:57:51.344Z,19.40
2023-01-30T04:58:51.348Z,19.42
2023-01-30T04:59:51.330Z,19.38
2023-01-30T05:00:51.424Z,19.38
2023-01-30T05:01:51.355Z,19.40
2023-01-30T05:02:51.301Z,19.38
2023-01-30T05:03:51.296Z,19.42
2023-01-30T05:04:51.305Z,19.35
2023-01-30T05:05:51.272Z,19.41
2023-01-30T05:06:51.260Z,19.40
2023-01-30T05:07:51.256Z,19.38
2023-01-30T05:08:51.244Z,19.38
2023-01-30T05:09:51.239Z,19.32
2023-01-30T05:10:51.225Z,19.36
2023-01-30T05:11:51.216Z,19.34
2023-01-30T05:12:51.208Z,19.35
2023-01-30T05:13:51.210Z,19.43
2023-01-30T05:14:51.203Z,19.41
2023-01-30T05:15:51.185Z,19.36
2023-01-30T05:16:51.180Z,19.35
2023-01-30T05:17:51.161Z,19.40
2023-01-30T05:18:51.167Z,19.38
2023-01-30T05:19:51.157Z,19.36
2023-01-30T05:20:51.157Z,19.34
2023-01-30T05:21:51.133Z,19.36
2023-01-30T05:22:51.117Z,19.40
2023-01-30T05:23:51.123Z,19.35
2023-01-30T05:24:51.097Z,19.36
2023-01-30T05:25:51.087Z,19.35
2023-01-30T05:26:51.087Z,19.38
2023-01-30T05:27:51.076Z,19.36
2023-01-30T05:28:51.066Z,19.36
2023-01-30T05:29:51.060Z,19.35
2023-01-30T05:30:51.124Z,19.38
2023-01-30T05:31:51.069Z,19.42
2023-01-30T05:32:51.028Z,19.34
2023-01-30T05:33:51.037Z,19.36
2023-01-30T05:34:51.016Z,19.38
2023-01-30T05:35:51.002Z,19.35
2023-01-30T05:36:51.024Z,19.32
2023-01-30T05:37:51.028Z,19.35
2023-01-30T05:38:50.977Z,19.34
2023-01-30T05:39:50.980Z,19.32
2023-01-30T05:40:50.958Z,19.32
2023-01-30T05:41:50.978Z,19.35
2023-01-30T05:42:50.939Z,19.32
2023-01-30T05:43:50.940Z,19.34
2023-01-30T05:44:50.924Z,19.31
2023-01-30T05:45:50.910Z,19.36
2023-01-30T05:46:51.000Z,19.34
2023-01-30T05:47:50.898Z,19.37
2023-01-30T05:48:50.891Z,19.34
2023-01-30T05:49:50.877Z,19.36
2023-01-30T05:50:50.870Z,19.34
2023-01-30T05:51:51.656Z,19.29
2023-01-30T05:52:50.874Z,19.36
2023-01-30T05:53:50.872Z,19.34
2023-01-30T05:54:50.840Z,19.34
2023-01-30T05:55:50.825Z,19.35
2023-01-30T05:56:50.844Z,19.32
2023-01-30T05:57:50.807Z,19.32
2023-01-30T05:58:50.804Z,19.31
2023-01-30T05:59:50.800Z,19.32
2023-01-30T06:00:50.783Z,19.32
2023-01-30T06:01:50.769Z,19.36
2023-01-30T06:02:50.806Z,19.32
2023-01-30T06:03:50.829Z,19.31
2023-01-30T06:04:50.889Z,19.32
2023-01-30T06:05:50.780Z,19.32
2023-01-30T06:06:50.742Z,19.34
2023-01-30T06:07:50.715Z,19.31
2023-01-30T06:08:50.736Z,19.34
2023-01-30T06:09:50.929Z,19.35
2023-01-30T06:10:50.696Z,19.36
2023-01-30T06:11:51.406Z,19.34
2023-01-30T06:12:50.693Z,19.34
2023-01-30T06:13:50.672Z,19.32
2023-01-30T06:14:50.653Z,19.29
2023-01-30T06:15:50.672Z,19.29
2023-01-30T06:16:50.680Z,19.28
2023-01-30T06:17:50.892Z,19.32
2023-01-30T06:18:50.624Z,19.32
2023-01-30T06:19:50.621Z,19.35
2023-01-30T06:20:50.611Z,19.34
2023-01-30T06:21:50.606Z,19.29
2023-01-30T06:22:50.892Z,19.32
2023-01-30T06:23:50.576Z,19.36
2023-01-30T06:24:50.593Z,19.40
2023-01-30T06:25:50.564Z,19.37
2023-01-30T06:26:50.620Z,19.36
2023-01-30T06:27:50.547Z,19.38
2023-01-30T06:28:50.538Z,19.43
2023-01-30T06:29:50.545Z,19.40
2023-01-30T06:30:50.671Z,19.43
2023-01-30T06:31:50.513Z,19.46
2023-01-30T06:32:50.536Z,19.47
2023-01-30T06:33:50.493Z,19.53
2023-01-30T06:34:50.475Z,19.52
2023-01-30T06:35:50.476Z,19.51
2023-01-30T06:36:50.457Z,19.58
2023-01-30T06:37:50.500Z,19.55
2023-01-30T06:38:50.901Z,19.64
2023-01-30T06:39:50.433Z,19.59
2023-01-30T06:40:50.472Z,19.66
2023-01-30T06:41:50.901Z,19.75
2023-01-30T06:42:50.413Z,19.79
2023-01-30T06:43:50.406Z,19.99
2023-01-30T06:44:50.411Z,20.08
2023-01-30T06:45:50.555Z,20.17
2023-01-30T06:46:50.373Z,20.31
2023-01-30T06:47:50.371Z,20.64
2023-01-30T06:48:50.351Z,20.59
2023-01-30T06:49:50.415Z,20.61
2023-01-30T06:50:50.414Z,20.75
2023-01-30T06:51:50.342Z,21.18
2023-01-30T06:52:50.313Z,21.42
2023-01-30T06:53:52.464Z,21.47
2023-01-30T06:54:50.420Z,21.65
2023-01-30T06:55:52.029Z,22.88
2023-01-30T06:56:50.559Z,22.36
2023-01-30T06:57:50.915Z,22.22
2023-01-30T06:58:50.944Z,22.34
2023-01-30T06:59:50.501Z,22.48
2023-01-30T07:00:50.922Z,22.65
2023-01-30T07:01:50.517Z,22.67
2023-01-30T07:02:50.489Z,23.09
2023-01-30T07:03:50.522Z,23.35
2023-01-30T07:04:50.451Z,23.62
2023-01-30T07:06:50.438Z,23.99
2023-01-30T07:07:50.429Z,24.22
2023-01-30T07:08:50.420Z,24.53
2023-01-30T07:10:05.806Z,24.71
2023-01-30T07:10:50.922Z,25.07
2023-01-30T07:11:50.920Z,25.08
2023-01-30T07:12:50.420Z,25.18
2023-01-30T07:13:50.373Z,25.52
2023-01-30T07:14:50.363Z,25.80
2023-01-30T07:15:50.375Z,25.88
2023-01-30T07:16:50.582Z,26.17
2023-01-30T07:17:50.329Z,26.42
2023-01-30T07:18:50.359Z,26.15
2023-01-30T07:19:50.319Z,26.46
2023-01-30T07:20:50.948Z,26.69
2023-01-30T07:21:50.296Z,26.79
2023-01-30T07:22:50.287Z,26.79
2023-01-30T07:23:50.279Z,27.24
2023-01-30T07:24:50.426Z,27.30
2023-01-30T07:25:50.319Z,27.54
2023-01-30T07:26:50.263Z,27.65
2023-01-30T07:27:50.246Z,27.60
2023-01-30T07:28:50.267Z,27.87
2023-01-30T07:29:51.871Z,28.08
2023-01-30T07:30:50.464Z,28.00
2023-01-30T07:31:50.231Z,28.13
2023-01-30T07:32:50.205Z,28.25
2023-01-30T07:33:50.190Z,28.71
2023-01-30T07:34:50.181Z,28.60
2023-01-30T07:35:50.171Z,28.77
2023-01-30T07:36:50.445Z,28.98
2023-01-30T07:37:50.243Z,29.21
2023-01-30T07:38:50.143Z,29.32
2023-01-30T07:39:50.428Z,29.81
2023-01-30T07:40:50.128Z,29.90
2023-01-30T07:41:50.430Z,30.24
2023-01-30T07:42:50.107Z,30.10
2023-01-30T07:43:50.159Z,30.40
2023-01-30T07:44:50.130Z,28.59
2023-01-30T07:45:50.079Z,28.08
2023-01-30T07:46:50.466Z,24.29
2023-01-30T07:47:50.065Z,23.45
2023-01-30T07:48:50.089Z,22.70
2023-01-30T07:49:50.043Z,24.13
2023-01-30T07:50:50.051Z,24.67
2023-01-30T07:51:50.452Z,23.75
2023-01-30T07:52:50.017Z,23.50
2023-01-30T07:53:50.147Z,22.94
2023-01-30T07:54:50.264Z,23.68
2023-01-30T07:55:50.606Z,24.96
2023-01-30T07:56:50.652Z,25.73
2023-01-30T07:57:50.412Z,26.70
2023-01-30T07:58:50.170Z,27.43
2023-01-30T07:59:50.545Z,27.74
2023-01-30T08:00:51.007Z,28.19
2023-01-30T08:01:50.409Z,28.87
2023-01-30T08:02:50.366Z,28.68
2023-01-30T08:03:50.054Z,29.06
2023-01-30T08:05:50.560Z,29.15
2023-01-30T08:06:50.429Z,29.32
2023-01-30T08:07:50.252Z,29.73
2023-01-30T08:08:50.303Z,30.00
2023-01-30T08:09:50.438Z,29.80
2023-01-30T08:10:50.386Z,30.09
2023-01-30T08:11:50.132Z,29.91
2023-01-30T08:12:50.417Z,30.41
2023-01-30T08:13:50.473Z,30.93
2023-01-30T08:14:50.164Z,31.20
2023-01-30T08:15:50.537Z,31.28
2023-01-30T08:16:50.305Z,31.48
2023-01-30T08:17:50.347Z,31.32
2023-01-30T08:18:50.506Z,32.09
2023-01-30T08:19:50.350Z,32.14
2023-01-30T08:20:50.087Z,32.30
2023-01-30T08:21:49.943Z,32.33
2023-01-30T08:22:49.943Z,31.82
2023-01-30T08:23:49.759Z,32.01
2023-01-30T08:24:49.740Z,33.18
2023-01-30T08:25:49.723Z,32.62
2023-01-30T08:26:49.758Z,32.80
2023-01-30T08:27:50.978Z,33.02
2023-01-30T08:28:49.713Z,31.09
2023-01-30T08:29:49.697Z,31.46
2023-01-30T08:30:49.823Z,31.13
2023-01-30T08:31:49.703Z,30.31
2023-01-30T08:32:50.043Z,28.78
2023-01-30T08:33:50.079Z,28.00
2023-01-30T08:34:49.656Z,28.09
2023-01-30T08:35:49.634Z,28.09
2023-01-30T08:36:49.953Z,27.65
2023-01-30T08:38:49.607Z,19.50
2023-01-30T08:39:49.599Z,20.34
2023-01-30T08:40:49.592Z,20.76
2023-01-30T08:41:49.577Z,22.01
2023-01-30T08:42:49.955Z,22.68
2023-01-30T08:43:49.582Z,23.76
2023-01-30T08:44:49.553Z,25.11
2023-01-30T08:45:49.983Z,26.88
2023-01-30T08:46:49.564Z,27.11
2023-01-30T08:47:49.516Z,27.31
2023-01-30T08:48:50.413Z,27.30
2023-01-30T08:49:49.508Z,27.43
2023-01-30T08:50:49.967Z,27.14
2023-01-30T08:51:49.512Z,22.14
2023-01-30T08:52:49.484Z,20.67
2023-01-30T08:53:49.492Z,20.07
2023-01-30T08:54:49.463Z,20.72
2023-01-30T08:55:49.462Z,22.06
2023-01-30T08:56:49.438Z,22.84
2023-01-30T08:57:49.468Z,24.73
2023-01-30T08:58:49.428Z,27.00
2023-01-30T08:59:49.407Z,26.37
2023-01-30T09:00:49.710Z,26.67
2023-01-30T09:01:49.426Z,26.70
2023-01-30T09:02:49.532Z,26.67
2023-01-30T09:03:49.376Z,26.72
2023-01-30T09:04:49.413Z,26.95
2023-01-30T09:05:49.956Z,26.95
2023-01-30T09:06:49.369Z,27.00
2023-01-30T09:07:49.470Z,27.04
2023-01-30T09:08:49.340Z,27.19
2023-01-30T09:09:49.341Z,27.34
2023-01-30T09:10:49.308Z,27.44
2023-01-30T09:11:49.300Z,27.29
2023-01-30T09:12:49.466Z,27.45
2023-01-30T09:13:49.894Z,27.46
2023-01-30T09:14:49.274Z,27.37
2023-01-30T09:15:49.277Z,27.52
2023-01-30T09:16:49.305Z,27.38
2023-01-30T09:17:49.468Z,27.52
2023-01-30T09:18:49.515Z,27.60
2023-01-30T09:19:49.234Z,27.74
2023-01-30T09:20:49.305Z,27.69
2023-01-30T09:21:49.213Z,27.97
2023-01-30T09:22:49.210Z,28.05
2023-01-30T09:23:49.277Z,28.11
2023-01-30T09:24:49.476Z,28.32
2023-01-30T09:25:49.172Z,28.27
2023-01-30T09:26:49.204Z,28.42
2023-01-30T09:27:49.162Z,28.48
2023-01-30T09:28:49.146Z,28.68
2023-01-30T09:29:49.477Z,28.65
2023-01-30T09:30:49.258Z,28.79
2023-01-30T09:31:49.139Z,28.95
2023-01-30T09:32:49.140Z,29.14
2023-01-30T09:33:49.097Z,29.28
2023-01-30T09:34:49.475Z,29.14
2023-01-30T09:35:49.089Z,29.26
2023-01-30T09:36:49.528Z,29.35
2023-01-30T09:37:49.069Z,29.44
2023-01-30T09:38:49.060Z,29.52
2023-01-30T09:39:49.052Z,29.65
2023-01-30T09:40:49.032Z,29.69
2023-01-30T09:41:49.036Z,29.89
2023-01-30T09:42:56.879Z,30.19
2023-01-30T09:43:49.009Z,30.29
2023-01-30T09:44:49.473Z,30.80
2023-01-30T09:45:49.111Z,30.49
2023-01-30T09:46:49.496Z,30.79
2023-01-30T09:47:48.976Z,30.75
2023-01-30T09:48:48.966Z,30.55
2023-01-30T09:49:48.980Z,30.82
2023-01-30T09:51:48.976Z,30.80
2023-01-30T09:52:48.950Z,30.94
2023-01-30T09:53:48.929Z,31.06
2023-01-30T09:54:49.408Z,31.02
2023-01-30T09:55:48.980Z,31.20
2023-01-30T09:56:48.903Z,31.07
2023-01-30T09:57:48.881Z,31.26
2023-01-30T09:58:48.923Z,31.29
2023-01-30T09:59:48.869Z,31.30
2023-01-30T10:00:48.980Z,30.51
2023-01-30T10:01:48.864Z,30.58
2023-01-30T10:02:48.856Z,30.93
2023-01-30T10:03:48.934Z,31.26
2023-01-30T10:05:00.618Z,31.21
2023-01-30T10:05:48.844Z,31.40
2023-01-30T10:06:48.819Z,31.53
2023-01-30T10:07:48.932Z,31.62
2023-01-30T10:08:48.816Z,31.70
2023-01-30T10:09:48.985Z,31.75
2023-01-30T10:11:00.741Z,31.90
2023-01-30T10:11:48.786Z,31.83
2023-01-30T10:12:48.796Z,32.08
2023-01-30T10:13:48.735Z,31.95
2023-01-30T10:14:49.000Z,32.08
2023-01-30T10:15:49.045Z,32.29
2023-01-30T10:16:48.708Z,32.34
2023-01-30T10:17:48.710Z,32.47
2023-01-30T10:18:48.708Z,32.55
2023-01-30T10:19:48.678Z,32.61
2023-01-30T10:20:49.021Z,32.65
2023-01-30T10:21:48.669Z,32.72
2023-01-30T10:22:48.654Z,32.76
2023-01-30T10:23:48.649Z,32.86
2023-01-30T10:24:48.659Z,33.18
2023-01-30T10:25:48.986Z,33.11
2023-01-30T10:26:48.762Z,33.37
2023-01-30T10:27:48.609Z,33.18
2023-01-30T10:28:55.508Z,33.44
2023-01-30T10:29:48.605Z,33.30
2023-01-30T10:30:49.182Z,32.93
2023-01-30T10:31:48.643Z,29.18
2023-01-30T10:32:48.567Z,28.00
2023-01-30T10:33:48.564Z,28.50
2023-01-30T10:34:48.569Z,28.59
2023-01-30T10:35:49.017Z,26.27
2023-01-30T10:36:48.542Z,27.33
2023-01-30T10:37:48.523Z,28.26
2023-01-30T10:38:48.509Z,27.64
2023-01-30T10:39:54.932Z,27.82
2023-01-30T10:40:48.520Z,27.01
2023-01-30T10:41:48.584Z,27.21
2023-01-30T10:42:48.772Z,26.08
2023-01-30T10:44:48.465Z,25.10
2023-01-30T10:45:48.581Z,26.93
2023-01-30T10:46:48.614Z,27.41
2023-01-30T10:47:48.429Z,27.47
2023-01-30T10:48:48.419Z,27.48
2023-01-30T10:49:48.418Z,27.47
2023-01-30T10:50:48.511Z,27.47
2023-01-30T10:51:48.390Z,27.47
2023-01-30T10:52:48.383Z,27.53
2023-01-30T10:53:48.412Z,27.73
2023-01-30T10:54:48.361Z,27.71
2023-01-30T10:55:48.369Z,27.71
2023-01-30T10:56:48.535Z,27.69
2023-01-30T10:57:48.343Z,27.61
2023-01-30T10:58:48.343Z,27.58
2023-01-30T10:59:48.345Z,27.57
2023-01-30T11:00:48.518Z,27.56
2023-01-30T11:01:48.340Z,27.47
2023-01-30T11:02:50.779Z,27.67
2023-01-30T11:03:48.284Z,27.90
2023-01-30T11:04:48.283Z,27.83
2023-01-30T11:05:48.295Z,27.83
2023-01-30T11:06:48.265Z,27.66
2023-01-30T11:07:48.248Z,27.59
2023-01-30T11:09:48.233Z,27.70
2023-01-30T11:10:48.235Z,27.77
2023-01-30T11:11:48.218Z,27.70
2023-01-30T11:12:48.238Z,27.79
2023-01-30T11:13:48.506Z,27.75
2023-01-30T11:14:48.187Z,28.16
2023-01-30T11:15:48.260Z,27.89
2023-01-30T11:16:48.184Z,27.96
2023-01-30T11:17:48.166Z,27.83
2023-01-30T11:19:19.019Z,28.00
2023-01-30T11:19:48.514Z,28.09
2023-01-30T11:20:48.189Z,28.23
2023-01-30T11:21:48.124Z,27.71
2023-01-30T11:22:48.111Z,27.93
2023-01-30T11:23:48.113Z,27.92
2023-01-30T11:24:48.515Z,27.81
2023-01-30T11:25:48.089Z,27.76
2023-01-30T11:26:48.750Z,27.65
2023-01-30T11:27:48.083Z,27.62
2023-01-30T11:28:49.093Z,27.55
2023-01-30T11:29:48.517Z,27.47
2023-01-30T11:30:48.070Z,27.46
2023-01-30T11:31:48.226Z,27.46
2023-01-30T11:32:48.043Z,27.40
2023-01-30T11:33:48.018Z,27.41
2023-01-30T11:34:48.100Z,27.38
2023-01-30T11:35:47.996Z,27.28
2023-01-30T11:36:47.992Z,27.31
2023-01-30T11:37:47.985Z,27.23
2023-01-30T11:38:47.975Z,27.22
2023-01-30T11:39:48.021Z,27.21
2023-01-30T11:40:47.966Z,27.16
2023-01-30T11:41:47.945Z,27.09
2023-01-30T11:42:47.950Z,27.15
2023-01-30T11:43:48.022Z,27.07
2023-01-30T11:44:48.051Z,27.04
2023-01-30T11:45:48.609Z,27.00
2023-01-30T11:46:47.898Z,27.00
2023-01-30T11:47:56.722Z,26.99
2023-01-30T11:49:02.654Z,26.99
2023-01-30T11:49:58.069Z,26.97
2023-01-30T11:50:49.609Z,26.92
2023-01-30T11:51:48.029Z,26.95
2023-01-30T11:52:47.841Z,26.93
2023-01-30T11:53:47.840Z,26.88
2023-01-30T11:54:47.829Z,26.82
2023-01-30T11:56:02.165Z,26.79
2023-01-30T11:56:48.056Z,26.76
2023-01-30T11:57:47.806Z,26.83
2023-01-30T11:58:47.795Z,26.72
2023-01-30T11:59:48.784Z,26.70
2023-01-30T12:00:48.058Z,26.69
2023-01-30T12:01:47.794Z,26.59
2023-01-30T12:02:47.790Z,26.69
2023-01-30T12:03:47.753Z,26.65
2023-01-30T12:04:47.784Z,26.63
2023-01-30T12:05:48.031Z,26.62
2023-01-30T12:06:47.717Z,26.55
2023-01-30T12:07:47.724Z,26.55
2023-01-30T12:08:47.710Z,26.58
2023-01-30T12:09:48.083Z,26.53
2023-01-30T12:10:47.693Z,26.50
2023-01-30T12:11:47.679Z,21.60
2023-01-30T12:12:47.675Z,19.56
2023-01-30T12:13:47.660Z,19.26
2023-01-30T12:14:47.648Z,20.76
2023-01-30T12:15:48.033Z,21.15
2023-01-30T12:16:47.651Z,21.66
2023-01-30T12:17:47.630Z,22.14
2023-01-30T12:18:47.614Z,22.32
2023-01-30T12:19:48.036Z,22.68
2023-01-30T12:20:48.040Z,25.32
2023-01-30T12:21:47.605Z,25.91
2023-01-30T12:22:47.580Z,26.48
2023-01-30T12:23:47.581Z,27.73
2023-01-30T12:24:47.559Z,26.94
2023-01-30T12:25:48.037Z,27.21
2023-01-30T12:26:47.609Z,29.08
2023-01-30T12:27:47.531Z,30.45
2023-01-30T12:28:47.525Z,30.16
2023-01-30T12:29:47.510Z,28.75
2023-01-30T12:30:47.538Z,28.09
2023-01-30T12:31:47.495Z,29.11
2023-01-30T12:32:47.563Z,30.05
2023-01-30T12:33:47.475Z,30.90
2023-01-30T12:34:48.057Z,31.69
2023-01-30T12:35:47.967Z,31.72
2023-01-30T12:36:47.459Z,31.36
2023-01-30T12:37:47.440Z,31.10
2023-01-30T12:38:47.433Z,31.99
2023-01-30T12:39:47.448Z,31.85
2023-01-30T12:40:47.541Z,32.12
2023-01-30T12:41:47.400Z,31.97
2023-01-30T12:42:47.402Z,31.96
2023-01-30T12:43:47.388Z,31.92
2023-01-30T12:44:47.385Z,32.04
2023-01-30T12:45:47.544Z,32.10
2023-01-30T12:46:47.358Z,32.18
2023-01-30T12:47:47.363Z,32.25
2023-01-30T12:48:48.845Z,32.10
2023-01-30T12:49:47.354Z,32.07
2023-01-30T12:50:47.576Z,32.04
2023-01-30T12:51:47.321Z,31.90
2023-01-30T12:52:47.309Z,31.86
2023-01-30T12:53:47.299Z,32.02
2023-01-30T12:54:47.331Z,32.15
2023-01-30T12:55:47.610Z,31.85
2023-01-30T12:56:48.380Z,31.99
2023-01-30T12:57:47.269Z,31.88
2023-01-30T12:58:47.258Z,31.72
2023-01-30T12:59:47.258Z,31.57
2023-01-30T13:00:47.235Z,31.69
2023-01-30T13:01:47.673Z,31.81
2023-01-30T13:02:47.303Z,31.72
2023-01-30T13:03:47.210Z,31.54
2023-01-30T13:04:56.265Z,31.59
2023-01-30T13:05:47.188Z,31.47
2023-01-30T13:06:48.066Z,31.47
2023-01-30T13:07:47.555Z,31.28
2023-01-30T13:08:47.195Z,31.11
2023-01-30T13:09:47.158Z,30.98
2023-01-30T13:10:47.560Z,31.04
2023-01-30T13:11:47.173Z,31.00
2023-01-30T13:12:47.553Z,31.05
2023-01-30T13:13:47.122Z,30.95
2023-01-30T13:14:47.140Z,30.85
2023-01-30T13:15:47.604Z,30.67
2023-01-30T13:16:47.117Z,30.56
2023-01-30T13:17:47.558Z,30.56
2023-01-30T13:18:47.085Z,30.55
2023-01-30T13:19:47.078Z,30.53
2023-01-30T13:20:47.077Z,30.52
2023-01-30T13:21:47.066Z,30.53
2023-01-30T13:22:47.091Z,30.46
2023-01-30T13:23:47.089Z,30.34
2023-01-30T13:24:47.055Z,30.36
2023-01-30T13:25:47.063Z,30.29
2023-01-30T13:26:47.218Z,30.26
2023-01-30T13:27:46.990Z,30.20
2023-01-30T13:28:46.990Z,30.11
2023-01-30T13:29:46.999Z,30.10
2023-01-30T13:30:46.977Z,30.01
2023-01-30T13:31:47.339Z,29.94
2023-01-30T13:32:46.948Z,29.91
2023-01-30T13:33:46.936Z,29.87
2023-01-30T13:34:46.931Z,29.82
2023-01-30T13:35:46.931Z,29.82
2023-01-30T13:36:47.139Z,29.75
2023-01-30T13:37:46.906Z,29.74
2023-01-30T13:38:46.896Z,29.65
2023-01-30T13:39:46.893Z,29.61
2023-01-30T13:40:46.878Z,29.55
2023-01-30T13:41:47.111Z,29.53
2023-01-30T13:42:46.881Z,29.50
2023-01-30T13:43:47.088Z,29.39
2023-01-30T13:44:46.841Z,29.39
2023-01-30T13:45:47.100Z,29.35
2023-01-30T13:46:46.888Z,29.31
2023-01-30T13:47:46.811Z,29.34
2023-01-30T13:48:47.080Z,29.28